createdAt,value
2019-03-21T00:00:32.511Z,103370.31
2019-03-21T00:03:05.063Z,103365.53
2019-03-21T00:05:38.484Z,103372.42
2019-03-21T00:08:10.927Z,103368.00
2019-03-21T00:10:43.066Z,103369.69
2019-03-21T00:13:15.494Z,103372.04
2019-03-21T00:15:48.095Z,103367.09
2019-03-21T00:18:20.450Z,103359.45
2019-03-21T00:20:55.093Z,103357.14
2019-03-21T00:23:27.387Z,103362.73
2019-03-21T00:25:59.833Z,103359.48
2019-03-21T00:28:32.291Z,103360.25
2019-03-21T00:31:04.969Z,103359.50
2019-03-21T00:33:37.245Z,103360.70
2019-03-21T00:36:09.593Z,103360.56
2019-03-21T00:38:42.020Z,103362.64
2019-03-21T00:41:14.582Z,103361.34
2019-03-21T00:43:46.877Z,103361.34
2019-03-21T00:46:19.557Z,103364.23
2019-03-21T00:48:51.884Z,103363.84
2019-03-21T00:51:24.266Z,103365.92
2019-03-21T00:53:56.539Z,103363.32
2019-03-21T00:56:29.027Z,103367.22
2019-03-21T00:59:01.397Z,103360.73
2019-03-21T01:01:33.692Z,103359.58
2019-03-21T01:04:06.077Z,103355.30
2019-03-21T01:06:38.452Z,103358.28
2019-03-21T01:09:11.094Z,103363.87
2019-03-21T01:11:43.415Z,103362.86
2019-03-21T01:14:15.728Z,103363.11
2019-03-21T01:16:48.083Z,103357.91
2019-03-21T01:19:20.373Z,103358.57
2019-03-21T01:21:52.715Z,103357.66
2019-03-21T01:24:25.431Z,103360.12
2019-03-21T01:26:57.750Z,103359.73
2019-03-21T01:29:30.181Z,103358.05
2019-03-21T01:32:02.522Z,103354.25
2019-03-21T01:34:36.743Z,103356.75
2019-03-21T01:37:09.024Z,103347.52
2019-03-21T01:39:41.534Z,103352.61
2019-03-21T01:42:13.778Z,103355.60
2019-03-21T01:44:46.171Z,103345.36
2019-03-21T01:47:18.489Z,103348.73
2019-03-21T01:49:50.917Z,103348.73
2019-03-21T01:52:23.348Z,103343.16
2019-03-21T01:54:56.488Z,103339.39
2019-03-21T01:57:28.929Z,103343.12
2019-03-21T02:00:01.379Z,103342.69
2019-03-21T02:02:33.822Z,103340.62
2019-03-21T02:05:06.249Z,103335.95
2019-03-21T02:07:39.112Z,103334.53
2019-03-21T02:10:11.475Z,103333.86
2019-03-21T02:12:43.811Z,103334.05
2019-03-21T02:15:16.032Z,103336.55
2019-03-21T02:17:48.496Z,103329.70
2019-03-21T02:20:20.898Z,103327.92
2019-03-21T02:22:53.258Z,103331.09
2019-03-21T02:25:25.989Z,103331.83
2019-03-21T02:27:58.405Z,103325.50
2019-03-21T02:30:30.880Z,103325.80
2019-03-21T02:33:04.338Z,103323.45
2019-03-21T02:35:36.690Z,103320.16
2019-03-21T02:38:09.164Z,103324.23
2019-03-21T02:40:41.456Z,103324.20
2019-03-21T02:43:13.885Z,103313.56
2019-03-21T02:45:46.235Z,103311.05
2019-03-21T02:48:19.122Z,103313.48
2019-03-21T02:50:51.461Z,103308.79
2019-03-21T02:53:23.770Z,103311.66
2019-03-21T02:55:57.305Z,103319.47
2019-03-21T02:58:29.717Z,103317.91
2019-03-21T03:01:02.084Z,103319.30
2019-03-21T03:03:34.411Z,103323.50
2019-03-21T03:06:06.807Z,103317.86
2019-03-21T03:08:39.419Z,103313.83
2019-03-21T03:11:11.754Z,103310.69
2019-03-21T03:13:44.339Z,103305.64
2019-03-21T03:16:16.939Z,103307.44
2019-03-21T03:18:50.332Z,103302.56
2019-03-21T03:21:22.668Z,103307.70
2019-03-21T03:23:55.254Z,103304.42
2019-03-21T03:26:27.602Z,103305.23
2019-03-21T03:28:59.973Z,103305.66
2019-03-21T03:31:32.561Z,103307.28
2019-03-21T03:34:04.964Z,103310.95
2019-03-21T03:36:37.505Z,103312.80
2019-03-21T03:39:09.892Z,103306.45
2019-03-21T03:41:42.448Z,103309.20
2019-03-21T03:44:17.334Z,103307.78
2019-03-21T03:46:49.879Z,103310.53
2019-03-21T03:49:23.764Z,103311.83
2019-03-21T03:51:56.727Z,103308.45
2019-03-21T03:54:29.243Z,103307.45
2019-03-21T03:57:01.545Z,103300.72
2019-03-21T03:59:33.871Z,103302.80
2019-03-21T04:02:06.206Z,103301.52
2019-03-21T04:04:38.514Z,103300.06
2019-03-21T04:07:11.224Z,103296.16
2019-03-21T04:09:43.873Z,103302.43
2019-03-21T04:12:16.188Z,103309.45
2019-03-21T04:14:48.458Z,103304.34
2019-03-21T04:17:20.771Z,103306.46
2019-03-21T04:19:53.177Z,103300.61
2019-03-21T04:22:25.843Z,103295.17
2019-03-21T04:24:58.131Z,103295.98
2019-03-21T04:27:30.590Z,103291.94
2019-03-21T04:30:04.101Z,103293.10
2019-03-21T04:32:36.432Z,103301.67
2019-03-21T04:35:11.845Z,103294.94
2019-03-21T04:37:44.175Z,103294.84
2019-03-21T04:40:16.619Z,103297.55
2019-03-21T04:42:49.171Z,103296.38
2019-03-21T04:45:21.758Z,103302.20
2019-03-21T04:47:54.497Z,103298.06
2019-03-21T04:50:26.877Z,103301.42
2019-03-21T04:52:59.205Z,103303.70
2019-03-21T04:55:31.885Z,103303.00
2019-03-21T04:58:04.326Z,103304.55
2019-03-21T05:00:36.860Z,103314.86
2019-03-21T05:03:09.400Z,103308.09
2019-03-21T05:05:41.784Z,103307.22
2019-03-21T05:08:14.117Z,103309.19
2019-03-21T05:10:46.618Z,103312.76
2019-03-21T05:13:19.128Z,103315.31
2019-03-21T05:15:51.543Z,103316.06
2019-03-21T05:18:23.855Z,103319.50
2019-03-21T05:20:56.623Z,103317.11
2019-03-21T05:23:29.033Z,103319.67
2019-03-21T05:26:03.849Z,103317.91
2019-03-21T05:28:35.345Z,103320.12
2019-03-21T05:31:07.654Z,103322.28
2019-03-21T05:33:40.094Z,103327.41
2019-03-21T05:36:12.328Z,103327.76
2019-03-21T05:38:47.062Z,103331.19
2019-03-21T05:41:19.359Z,103328.92
2019-03-21T05:43:51.730Z,103329.14
2019-03-21T05:46:27.012Z,103327.36
2019-03-21T05:48:58.263Z,103330.57
2019-03-21T05:51:30.568Z,103333.48
2019-03-21T05:54:04.090Z,103334.22
2019-03-21T05:56:36.527Z,103333.78
2019-03-21T05:59:08.993Z,103330.59
2019-03-21T06:01:41.448Z,103333.11
2019-03-21T06:04:13.863Z,103327.64
2019-03-21T06:06:46.317Z,103326.16
2019-03-21T06:09:18.845Z,103329.19
2019-03-21T06:11:51.321Z,103342.13
2019-03-21T06:14:23.857Z,103341.25
2019-03-21T06:16:56.200Z,103333.52
2019-03-21T06:19:28.555Z,103336.52
2019-03-21T06:22:01.275Z,103337.22
2019-03-21T06:24:33.541Z,103342.73
2019-03-21T06:27:14.388Z,103347.81
2019-03-21T06:29:40.261Z,103351.55
2019-03-21T06:32:13.143Z,103351.88
2019-03-21T06:34:46.031Z,103350.09
2019-03-21T06:37:18.353Z,103347.12
2019-03-21T06:39:50.702Z,103345.58
2019-03-21T06:42:23.365Z,103341.57
2019-03-21T06:44:55.696Z,103339.11
2019-03-21T06:47:27.995Z,103347.89
2019-03-21T06:50:00.460Z,103347.40
2019-03-21T06:52:32.758Z,103351.84
2019-03-21T06:55:05.075Z,103347.07
2019-03-21T06:57:37.791Z,103352.19
2019-03-21T07:00:09.996Z,103357.21
2019-03-21T07:02:42.554Z,103358.92
2019-03-21T07:05:14.867Z,103362.64
2019-03-21T07:07:47.315Z,103361.55
2019-03-21T07:10:19.955Z,103364.67
2019-03-21T07:12:52.726Z,103374.52
2019-03-21T07:15:25.308Z,103371.59
2019-03-21T07:17:57.705Z,103365.31
2019-03-21T07:20:30.075Z,103370.42
2019-03-21T07:23:04.639Z,103371.45
2019-03-21T07:25:37.072Z,103378.66
2019-03-21T07:28:09.292Z,103382.56
2019-03-21T07:30:41.653Z,103380.39
2019-03-21T07:33:14.179Z,103385.50
2019-03-21T07:35:46.493Z,103388.55
2019-03-21T07:38:18.896Z,103392.75
2019-03-21T07:40:51.215Z,103392.47
2019-03-21T07:43:23.471Z,103391.16
2019-03-21T07:45:55.930Z,103389.55
2019-03-21T07:48:28.301Z,103388.95
2019-03-21T07:51:00.501Z,103392.55
2019-03-21T07:53:32.902Z,103392.27
2019-03-21T07:56:05.229Z,103399.62
2019-03-21T07:58:37.486Z,103398.51
2019-03-21T08:01:09.834Z,103396.59
2019-03-21T08:03:42.134Z,103397.28
2019-03-21T08:06:14.462Z,103396.05
2019-03-21T08:08:46.677Z,103404.12
2019-03-21T08:11:18.999Z,103407.50
2019-03-21T08:13:52.535Z,103409.33
2019-03-21T08:16:24.804Z,103412.34
2019-03-21T08:18:57.177Z,103414.77
2019-03-21T08:21:29.664Z,103417.77
2019-03-21T08:24:01.894Z,103426.60
2019-03-21T08:26:35.621Z,103426.02
2019-03-21T08:29:08.062Z,103433.56
2019-03-21T08:31:40.699Z,103435.66
2019-03-21T08:34:13.058Z,103433.05
2019-03-21T08:36:45.325Z,103436.37
2019-03-21T08:39:17.576Z,103430.53
2019-03-21T08:41:49.804Z,103434.59
2019-03-21T08:44:22.160Z,103432.05
2019-03-21T08:46:54.806Z,103436.85
2019-03-21T08:49:27.258Z,103435.15
2019-03-21T08:51:59.497Z,103437.81
2019-03-21T08:54:31.817Z,103436.30
2019-03-21T08:57:04.115Z,103445.97
2019-03-21T08:59:36.364Z,103444.95
2019-03-21T09:02:08.650Z,103444.92
2019-03-21T09:04:41.018Z,103441.56
2019-03-21T09:07:13.361Z,103441.23
2019-03-21T09:09:45.660Z,103442.03
2019-03-21T09:12:18.119Z,103452.14
2019-03-21T09:14:50.386Z,103442.18
2019-03-21T09:17:22.765Z,103444.84
2019-03-21T09:19:55.011Z,103444.73
2019-03-21T09:22:27.548Z,103447.39
2019-03-21T09:24:59.963Z,103444.22
2019-03-21T09:27:32.181Z,103441.56
2019-03-21T09:30:05.624Z,103438.50
2019-03-21T09:32:37.878Z,103446.80
2019-03-21T09:35:12.371Z,103454.26
2019-03-21T09:37:44.111Z,103452.98
2019-03-21T09:40:16.368Z,103450.37
2019-03-21T09:42:48.645Z,103450.53
2019-03-21T09:45:20.978Z,103450.25
2019-03-21T09:47:53.287Z,103455.78
2019-03-21T09:50:25.586Z,103461.42
2019-03-21T09:52:58.159Z,103452.02
2019-03-21T09:55:30.490Z,103451.77
2019-03-21T09:58:04.991Z,103447.88
2019-03-21T10:00:37.252Z,103451.75
2019-03-21T10:03:09.478Z,103453.04
2019-03-21T10:05:41.734Z,103449.00
2019-03-21T10:08:14.107Z,103449.70
2019-03-21T10:10:46.489Z,103458.31
2019-03-21T10:13:19.090Z,103452.97
2019-03-21T10:15:51.598Z,103455.16
2019-03-21T10:18:23.851Z,103450.42
2019-03-21T10:20:56.108Z,103452.33
2019-03-21T10:23:28.563Z,103454.35
2019-03-21T10:26:00.899Z,103447.86
2019-03-21T10:28:33.294Z,103447.25
2019-03-21T10:31:05.507Z,103446.75
2019-03-21T10:33:37.780Z,103455.86
2019-03-21T10:36:09.981Z,103459.75
2019-03-21T10:38:42.423Z,103455.59
2019-03-21T10:41:14.733Z,103452.17
2019-03-21T10:43:46.955Z,103455.20
2019-03-21T10:46:19.297Z,103450.91
2019-03-21T10:48:51.642Z,103440.38
2019-03-21T10:51:23.944Z,103438.53
2019-03-21T10:53:57.371Z,103437.38
2019-03-21T10:56:29.638Z,103439.95
2019-03-21T10:59:01.897Z,103437.01
2019-03-21T11:01:34.160Z,103445.95
2019-03-21T11:04:06.456Z,103452.84
2019-03-21T11:06:38.736Z,103440.25
2019-03-21T11:09:10.986Z,103444.02
2019-03-21T11:11:43.209Z,103448.02
2019-03-21T11:14:15.475Z,103448.40
2019-03-21T11:16:47.710Z,103449.78
2019-03-21T11:19:20.070Z,103446.85
2019-03-21T11:21:52.520Z,103443.41
2019-03-21T11:24:24.902Z,103444.56
2019-03-21T11:26:57.234Z,103442.44
2019-03-21T11:29:29.437Z,103442.10
2019-03-21T11:32:01.509Z,103442.68
2019-03-21T11:34:33.861Z,103441.10
2019-03-21T11:37:06.343Z,103441.77
2019-03-21T11:39:38.476Z,103443.63
2019-03-21T11:42:10.730Z,103436.53
2019-03-21T11:44:42.949Z,103437.45
2019-03-21T11:47:15.203Z,103433.78
2019-03-21T11:49:47.322Z,103440.58
2019-03-21T11:52:19.809Z,103439.45
2019-03-21T11:54:52.048Z,103439.52
2019-03-21T11:57:24.332Z,103439.27
2019-03-21T11:59:56.591Z,103429.61
2019-03-21T12:02:28.813Z,103424.94
2019-03-21T12:05:01.077Z,103422.21
2019-03-21T12:07:33.390Z,103419.37
2019-03-21T12:10:05.719Z,103420.20
2019-03-21T12:12:37.974Z,103420.83
2019-03-21T12:15:10.235Z,103418.36
2019-03-21T12:17:42.451Z,103412.34
2019-03-21T12:20:14.822Z,103414.99
2019-03-21T12:22:47.461Z,103413.62
2019-03-21T12:25:19.858Z,103408.05
2019-03-21T12:27:52.098Z,103410.98
2019-03-21T12:30:25.756Z,103402.66
2019-03-21T12:32:58.023Z,103402.16
2019-03-21T12:35:30.492Z,103397.81
2019-03-21T12:38:02.894Z,103394.88
2019-03-21T12:40:35.332Z,103393.52
2019-03-21T12:43:07.680Z,103392.05
2019-03-21T12:45:39.989Z,103389.67
2019-03-21T12:48:12.264Z,103398.17
2019-03-21T12:50:45.492Z,103397.01
2019-03-21T12:53:17.868Z,103396.50
2019-03-21T12:55:50.094Z,103392.40
2019-03-21T12:58:22.349Z,103401.55
2019-03-21T13:00:54.841Z,103391.91
2019-03-21T13:03:27.092Z,103389.08
2019-03-21T13:05:59.329Z,103389.83
2019-03-21T13:08:34.010Z,103388.42
2019-03-21T13:11:06.295Z,103393.77
2019-03-21T13:13:38.622Z,103388.01
2019-03-21T13:16:11.218Z,103387.45
2019-03-21T13:18:43.590Z,103389.92
2019-03-21T13:21:15.822Z,103385.18
2019-03-21T13:23:48.255Z,103382.45
2019-03-21T13:26:20.621Z,103375.94
2019-03-21T13:28:52.796Z,103373.36
2019-03-21T13:31:25.145Z,103371.31
2019-03-21T13:33:57.384Z,103374.44
2019-03-21T13:36:29.699Z,103367.33
2019-03-21T13:39:02.191Z,103368.22
2019-03-21T13:41:35.201Z,103365.74
2019-03-21T13:44:07.456Z,103362.13
2019-03-21T13:46:39.796Z,103370.86
2019-03-21T13:49:12.078Z,103368.27
2019-03-21T13:51:44.403Z,103367.77
2019-03-21T13:54:16.700Z,103370.72
2019-03-21T13:56:49.012Z,103362.85
2019-03-21T13:59:21.286Z,103356.80
2019-03-21T14:01:53.808Z,103354.68
2019-03-21T14:04:26.181Z,103358.77
2019-03-21T14:06:58.528Z,103349.78
2019-03-21T14:09:32.925Z,103342.06
2019-03-21T14:12:05.227Z,103333.73
2019-03-21T14:14:37.497Z,103333.53
2019-03-21T14:17:21.511Z,103329.09
2019-03-21T14:19:45.175Z,103329.13
2019-03-21T14:22:17.444Z,103319.62
2019-03-21T14:24:49.670Z,103315.34
2019-03-21T14:27:22.147Z,103312.95
2019-03-21T14:30:01.361Z,103320.98
2019-03-21T14:32:29.075Z,103315.63
2019-03-21T14:35:01.475Z,103315.50
2019-03-21T14:37:33.817Z,103306.66
2019-03-21T14:40:06.685Z,103310.66
2019-03-21T14:42:39.370Z,103307.66
2019-03-21T14:45:11.767Z,103306.41
2019-03-21T14:47:44.210Z,103306.56
2019-03-21T14:50:16.706Z,103306.44
2019-03-21T14:52:49.193Z,103310.80
2019-03-21T14:55:21.555Z,103310.61
2019-03-21T14:57:54.026Z,103315.03
2019-03-21T15:00:26.403Z,103308.38
2019-03-21T15:02:58.773Z,103303.36
2019-03-21T15:05:31.239Z,103298.41
2019-03-21T15:08:03.672Z,103305.42
2019-03-21T15:10:36.063Z,103303.61
2019-03-21T15:13:08.302Z,103293.88
2019-03-21T15:15:40.912Z,103297.17
2019-03-21T15:18:13.136Z,103302.23
2019-03-21T15:20:45.503Z,103298.94
2019-03-21T15:23:18.082Z,103296.25
2019-03-21T15:25:50.363Z,103300.30
2019-03-21T15:28:22.797Z,103296.20
2019-03-21T15:30:55.177Z,103294.52
2019-03-21T15:33:27.620Z,103289.02
2019-03-21T15:35:59.985Z,103286.86
2019-03-21T15:38:32.430Z,103291.28
2019-03-21T15:41:05.090Z,103288.95
2019-03-21T15:43:37.466Z,103280.59
2019-03-21T15:46:10.187Z,103289.49
2019-03-21T15:48:42.548Z,103293.33
2019-03-21T15:51:15.989Z,103300.38
2019-03-21T15:53:55.922Z,103297.56
2019-03-21T15:56:22.782Z,103294.39
2019-03-21T15:58:55.146Z,103290.10
2019-03-21T16:01:27.455Z,103288.45
2019-03-21T16:03:59.721Z,103283.25
2019-03-21T16:06:32.249Z,103275.30
2019-03-21T16:09:04.776Z,103276.22
2019-03-21T16:11:37.235Z,103274.88
2019-03-21T16:14:09.552Z,103276.47
2019-03-21T16:16:41.842Z,103266.00
2019-03-21T16:19:14.159Z,103272.42
2019-03-21T16:21:46.415Z,103273.75
2019-03-21T16:24:18.670Z,103279.66
2019-03-21T16:26:50.904Z,103277.31
2019-03-21T16:29:23.607Z,103276.38
2019-03-21T16:31:56.412Z,103275.56
2019-03-21T16:34:28.713Z,103283.77
2019-03-21T16:37:01.617Z,103280.97
2019-03-21T16:39:34.014Z,103286.89
2019-03-21T16:42:06.274Z,103286.00
2019-03-21T16:44:38.804Z,103284.98
2019-03-21T16:47:11.449Z,103284.13
2019-03-21T16:49:43.685Z,103285.54
2019-03-21T16:52:16.130Z,103281.57
2019-03-21T16:54:48.479Z,103278.31
2019-03-21T16:57:20.952Z,103274.43
2019-03-21T16:59:55.346Z,103270.91
2019-03-21T17:02:28.493Z,103276.03
2019-03-21T17:05:00.851Z,103276.54
2019-03-21T17:07:33.218Z,103287.37
2019-03-21T17:10:05.683Z,103282.80
2019-03-21T17:12:40.627Z,103281.22
2019-03-21T17:15:13.647Z,103282.58
2019-03-21T17:17:46.381Z,103285.95
2019-03-21T17:20:18.705Z,103289.86
2019-03-21T17:22:52.719Z,103288.67
2019-03-21T17:25:25.152Z,103280.69
2019-03-21T17:27:57.505Z,103285.33
2019-03-21T17:30:31.883Z,103284.31
2019-03-21T17:33:04.191Z,103291.69
2019-03-21T17:35:36.484Z,103296.73
2019-03-21T17:38:08.978Z,103299.20
2019-03-21T17:40:43.416Z,103296.50
2019-03-21T17:43:15.745Z,103297.33
2019-03-21T17:45:48.098Z,103293.35
2019-03-21T17:48:20.506Z,103289.85
2019-03-21T17:50:52.844Z,103297.58
2019-03-21T17:53:25.178Z,103293.45
2019-03-21T17:55:57.452Z,103295.78
2019-03-21T17:58:29.678Z,103300.70
2019-03-21T18:01:01.932Z,103310.10
2019-03-21T18:03:34.269Z,103303.47
2019-03-21T18:06:06.532Z,103304.66
2019-03-21T18:08:38.803Z,103315.23
2019-03-21T18:11:11.074Z,103316.73
2019-03-21T18:13:43.406Z,103316.72
2019-03-21T18:16:18.492Z,103315.81
2019-03-21T18:18:49.830Z,103320.52
2019-03-21T18:21:22.419Z,103319.73
2019-03-21T18:23:55.437Z,103319.44
2019-03-21T18:26:28.628Z,103324.06
2019-03-21T18:29:01.065Z,103326.98
2019-03-21T18:31:33.308Z,103333.39
2019-03-21T18:34:05.667Z,103325.67
2019-03-21T18:36:38.012Z,103325.75
2019-03-21T18:39:10.489Z,103336.11
2019-03-21T18:41:42.831Z,103336.00
2019-03-21T18:44:15.304Z,103329.06
2019-03-21T18:46:47.608Z,103327.36
2019-03-21T18:49:19.939Z,103331.08
2019-03-21T18:51:53.725Z,103324.56
2019-03-21T18:54:26.083Z,103330.98
2019-03-21T18:56:58.440Z,103322.16
2019-03-21T18:59:31.928Z,103320.14
2019-03-21T19:02:04.218Z,103331.90
2019-03-21T19:04:36.491Z,103331.07
2019-03-21T19:07:08.971Z,103327.78
2019-03-21T19:09:43.925Z,103325.56
2019-03-21T19:12:25.060Z,103330.19
2019-03-21T19:15:03.322Z,103331.30
2019-03-21T19:17:38.369Z,103334.11
2019-03-21T19:20:10.783Z,103330.39
2019-03-21T19:22:43.221Z,103324.66
2019-03-21T19:25:19.063Z,103320.44
2019-03-21T19:27:50.105Z,103320.83
2019-03-21T19:30:22.725Z,103320.70
2019-03-21T19:32:55.229Z,103323.90
2019-03-21T19:35:27.708Z,103324.02
2019-03-21T19:38:00.324Z,103312.74
2019-03-21T19:40:33.404Z,103315.47
2019-03-21T19:43:07.841Z,103312.16
2019-03-21T19:45:42.321Z,103310.38
2019-03-21T19:48:14.669Z,103303.85
2019-03-21T19:50:47.250Z,103299.23
2019-03-21T19:53:19.464Z,103301.17
2019-03-21T19:55:51.810Z,103306.47
2019-03-21T19:58:24.162Z,103300.06
2019-03-21T20:00:56.316Z,103296.26
2019-03-21T20:03:28.549Z,103298.23
2019-03-21T20:06:00.829Z,103294.03
2019-03-21T20:08:36.136Z,103301.55
2019-03-21T20:11:08.515Z,103306.50
2019-03-21T20:13:41.178Z,103300.26
2019-03-21T20:16:13.480Z,103300.38
2019-03-21T20:18:45.823Z,103301.45
2019-03-21T20:21:18.124Z,103307.58
2019-03-21T20:23:50.437Z,103304.85
2019-03-21T20:26:22.972Z,103309.78
2019-03-21T20:28:55.280Z,103310.45
2019-03-21T20:31:27.666Z,103295.91
2019-03-21T20:34:00.037Z,103294.28
2019-03-21T20:36:32.541Z,103291.06
2019-03-21T20:39:04.888Z,103287.53
2019-03-21T20:41:37.440Z,103291.58
2019-03-21T20:44:15.102Z,103299.00
2019-03-21T20:46:43.753Z,103308.09
2019-03-21T20:49:16.157Z,103308.91
2019-03-21T20:51:48.438Z,103309.83
2019-03-21T20:54:20.707Z,103298.67
2019-03-21T20:56:52.827Z,103297.39
2019-03-21T20:59:25.017Z,103294.08
2019-03-21T21:02:02.551Z,103295.89
2019-03-21T21:04:32.405Z,103293.33
2019-03-21T21:07:04.646Z,103292.88
2019-03-21T21:09:36.969Z,103283.24
2019-03-21T21:12:09.257Z,103279.59
2019-03-21T21:14:41.615Z,103285.53
2019-03-21T21:17:14.054Z,103282.33
2019-03-21T21:19:46.371Z,103279.69
2019-03-21T21:22:18.724Z,103286.94
2019-03-21T21:24:50.959Z,103286.70
2019-03-21T21:27:25.216Z,103286.25
2019-03-21T21:29:57.447Z,103285.44
2019-03-21T21:32:29.676Z,103288.61
2019-03-21T21:35:01.925Z,103277.20
2019-03-21T21:37:34.254Z,103279.80
2019-03-21T21:40:06.514Z,103282.46
2019-03-21T21:42:39.417Z,103289.94
2019-03-21T21:45:11.672Z,103292.33
2019-03-21T21:47:44.024Z,103286.73
2019-03-21T21:50:16.278Z,103287.30
2019-03-21T21:52:48.669Z,103283.36
2019-03-21T21:55:20.916Z,103282.31
2019-03-21T21:57:53.212Z,103276.42
2019-03-21T22:00:25.612Z,103280.68
2019-03-21T22:02:57.829Z,103275.82
2019-03-21T22:05:30.083Z,103274.99
2019-03-21T22:08:02.371Z,103279.06
2019-03-21T22:10:35.730Z,103270.35
2019-03-21T22:13:08.049Z,103272.56
2019-03-21T22:15:40.401Z,103274.13
2019-03-21T22:18:12.755Z,103276.51
2019-03-21T22:20:45.075Z,103271.21
2019-03-21T22:23:17.399Z,103269.66
2019-03-21T22:25:50.773Z,103265.83
2019-03-21T22:28:23.342Z,103260.02
2019-03-21T22:30:55.578Z,103262.19
2019-03-21T22:33:28.917Z,103261.58
2019-03-21T22:36:01.107Z,103267.86
2019-03-21T22:38:33.459Z,103260.80
2019-03-21T22:41:05.823Z,103267.05
2019-03-21T22:43:38.141Z,103258.30
2019-03-21T22:46:10.364Z,103256.99
2019-03-21T22:48:42.634Z,103261.02
2019-03-21T22:51:14.858Z,103249.53
2019-03-21T22:53:47.094Z,103248.84
2019-03-21T22:56:19.413Z,103249.36
2019-03-21T22:58:51.680Z,103250.88
2019-03-21T23:01:23.931Z,103250.53
2019-03-21T23:03:56.354Z,103251.70
2019-03-21T23:06:28.591Z,103245.69
2019-03-21T23:09:01.119Z,103249.33
2019-03-21T23:11:35.010Z,103241.97
2019-03-21T23:14:07.312Z,103234.63
2019-03-21T23:16:40.497Z,103227.44
2019-03-21T23:19:12.740Z,103225.77
2019-03-21T23:21:45.063Z,103222.30
2019-03-21T23:24:17.307Z,103222.98
2019-03-21T23:26:53.156Z,103219.39
2019-03-21T23:29:26.106Z,103222.30
2019-03-21T23:31:58.827Z,103218.09
2019-03-21T23:34:31.357Z,103217.38
2019-03-21T23:37:03.954Z,103216.08
2019-03-21T23:39:36.313Z,103221.88
2019-03-21T23:42:08.628Z,103220.48
2019-03-21T23:44:40.836Z,103218.16
2019-03-21T23:47:13.044Z,103224.67
2019-03-21T23:49:45.277Z,103215.34
2019-03-21T23:52:17.523Z,103209.14
2019-03-21T23:54:49.873Z,103207.71
2019-03-21T23:57:22.081Z,103208.41
2019-03-21T23:59:54.553Z,103201.50
